Time;durP1;ratioP1;P1;durP2;ratioP2;P2;SDS_P1;SDS_P2;PMS_P1;PMS_P2;Temp;Humidity;BMP_temperature;BMP_pressure;BME280_temperature;BME280_humidity;BME280_pressure;Samples;Min_cycle;Max_cycle;Signal;HPM_P1;HPM_P2
2022/12/22 03:26:40;;;;;;;74.00;32.67;;;8.70;99.90;;;;;;4903932;29;20135;-85
2022/12/22 03:29:06;;;;;;;70.95;32.58;;;8.70;99.90;;;;;;4903298;29;20123;-85
2022/12/22 03:31:31;;;;;;;51.55;29.70;;;8.70;99.90;;;;;;4904734;29;20036;-85
2022/12/22 03:33:57;;;;;;;55.20;30.67;;;8.70;99.90;;;;;;4886996;29;20507;-85
2022/12/22 03:36:22;;;;;;;60.42;30.52;;;8.70;99.90;;;;;;4904353;29;20052;-85
2022/12/22 03:38:48;;;;;;;61.20;31.23;;;8.60;99.90;;;;;;4887881;29;20079;-85
2022/12/22 03:46:41;;;;;;;62.80;30.95;;;8.70;99.90;;;;;;4919259;29;20052;-85
2022/12/22 03:49:10;;;;;;;49.42;29.83;;;8.70;99.90;;;;;;4903377;29;20040;-85
2022/12/22 03:51:43;;;;;;;54.95;30.23;;;8.70;99.90;;;;;;4893443;29;20503;-85
2022/12/22 03:54:10;;;;;;;62.50;32.72;;;8.60;99.90;;;;;;4906288;29;20049;-85
2022/12/22 03:56:36;;;;;;;60.83;31.95;;;8.60;99.90;;;;;;4889880;29;20051;-85
2022/12/22 03:59:02;;;;;;;39.05;27.55;;;8.70;99.90;;;;;;4887889;29;20483;-86
2022/12/22 04:01:28;;;;;;;86.55;33.40;;;8.70;99.90;;;;;;4924857;29;20047;-85
2022/12/22 04:03:54;;;;;;;45.08;28.55;;;8.70;99.90;;;;;;4904343;29;20557;-84
2022/12/22 04:06:19;;;;;;;81.72;35.08;;;8.70;99.90;;;;;;4903501;29;20040;-85
2022/12/22 04:08:45;;;;;;;44.08;29.13;;;8.60;99.90;;;;;;4893702;29;20491;-85
2022/12/22 04:14:04;;;;;;;52.20;30.33;;;8.70;99.90;;;;;;4897317;29;20169;-85
2022/12/22 04:16:30;;;;;;;93.57;37.63;;;8.70;99.90;;;;;;4890190;29;20071;-85
2022/12/22 04:18:56;;;;;;;48.35;30.15;;;8.70;99.90;;;;;;4903900;29;20093;-85
2022/12/22 04:21:22;;;;;;;74.43;33.83;;;8.70;99.90;;;;;;4892516;29;20063;-85
2022/12/22 04:23:50;;;;;;;53.47;30.75;;;8.70;99.90;;;;;;4924041;29;20487;-85
2022/12/22 04:26:18;;;;;;;57.72;30.52;;;8.70;99.90;;;;;;4911792;29;20043;-85
2022/12/22 04:28:43;;;;;;;70.28;34.50;;;8.70;99.90;;;;;;4910443;29;20496;-85
2022/12/22 04:31:09;;;;;;;70.40;32.15;;;8.70;99.90;;;;;;4908065;29;20055;-85
2022/12/22 04:33:34;;;;;;;61.05;31.10;;;8.70;99.90;;;;;;4909150;29;20491;-85
2022/12/22 04:36:00;;;;;;;159.15;41.10;;;8.80;99.90;;;;;;4894484;29;20637;-85
2022/12/22 04:38:26;;;;;;;58.40;31.08;;;8.80;99.90;;;;;;4910431;29;20415;-85
2022/12/22 04:40:51;;;;;;;85.18;33.63;;;8.70;99.90;;;;;;4909275;29;20041;-86
2022/12/22 04:43:17;;;;;;;81.00;33.13;;;8.70;99.90;;;;;;4909413;29;20135;-85
2022/12/22 04:45:43;;;;;;;49.72;29.70;;;8.70;99.90;;;;;;4907829;29;20059;-85
2022/12/22 04:48:09;;;;;;;74.78;32.20;;;8.70;99.90;;;;;;4908250;29;20127;-86
2022/12/22 04:50:35;;;;;;;73.60;33.28;;;8.70;99.90;;;;;;4907551;29;20519;-85
2022/12/22 04:53:01;;;;;;;79.72;33.78;;;8.70;99.90;;;;;;4893910;29;20123;-85
2022/12/22 04:55:26;;;;;;;74.65;34.28;;;8.70;99.90;;;;;;4908741;29;20514;-85
2022/12/22 04:57:52;;;;;;;79.53;32.80;;;8.60;99.90;;;;;;4892071;29;20191;-86
2022/12/22 05:00:18;;;;;;;71.15;32.47;;;8.60;99.90;;;;;;4895073;29;20040;-84
2022/12/22 05:02:44;;;;;;;100.75;35.60;;;8.60;99.90;;;;;;4910206;29;20047;-84
2022/12/22 05:05:09;;;;;;;65.05;31.48;;;8.80;99.90;;;;;;4909289;29;20041;-86
2022/12/22 05:07:35;;;;;;;56.78;29.35;;;8.60;99.90;;;;;;4908796;29;20032;-84
2022/12/22 05:10:02;;;;;;;81.28;34.17;;;8.60;99.90;;;;;;4908392;29;20048;-84
2022/12/22 05:15:12;;;;;;;47.17;28.38;;;8.60;99.90;;;;;;4907686;29;20147;-81
2022/12/22 05:17:38;;;;;;;89.30;33.85;;;8.60;99.90;;;;;;4909410;29;20139;-84
2022/12/22 05:20:04;;;;;;;66.15;31.42;;;8.70;99.90;;;;;;4887159;29;20180;-86
2022/12/22 05:22:29;;;;;;;85.72;35.65;;;8.60;99.90;;;;;;4888848;29;20124;-84
2022/12/22 05:24:58;;;;;;;79.20;33.25;;;8.70;99.90;;;;;;4903447;29;20587;-86
2022/12/22 05:27:23;;;;;;;64.38;32.13;;;9.00;99.90;;;;;;4893649;29;20541;-83
2022/12/22 05:29:49;;;;;;;89.95;34.38;;;8.60;99.90;;;;;;4910100;29;20044;-85
2022/12/22 05:32:14;;;;;;;73.75;33.13;;;8.60;99.90;;;;;;4909402;29;20047;-83
2022/12/22 05:34:40;;;;;;;77.82;33.78;;;8.60;99.90;;;;;;4909312;29;20055;-83
2022/12/22 05:37:06;;;;;;;62.35;32.08;;;8.70;99.90;;;;;;4906373;29;20035;-82
2022/12/22 05:39:31;;;;;;;52.60;28.92;;;8.60;99.90;;;;;;4913862;29;20154;-84
2022/12/22 05:41:57;;;;;;;70.55;32.80;;;8.60;99.90;;;;;;4909461;29;20119;-85
2022/12/22 05:44:22;;;;;;;83.22;33.92;;;8.60;99.90;;;;;;4897235;29;20122;-85
2022/12/22 05:46:51;;;;;;;76.43;32.63;;;8.60;99.90;;;;;;4908616;29;20040;-85
2022/12/22 05:49:18;;;;;;;99.10;35.80;;;8.60;99.90;;;;;;4891876;29;20040;-86
2022/12/22 05:51:44;;;;;;;122.38;39.80;;;8.60;99.90;;;;;;4904054;29;20058;-83
2022/12/22 05:54:10;;;;;;;95.55;36.22;;;8.60;99.90;;;;;;4907752;29;20037;-84
2022/12/22 05:56:35;;;;;;;92.78;36.95;;;8.70;99.90;;;;;;4905639;29;20070;-87
2022/12/22 05:59:01;;;;;;;73.75;33.50;;;8.60;99.90;;;;;;4893417;29;20521;-85
2022/12/22 06:01:26;;;;;;;96.95;37.15;;;8.60;99.90;;;;;;4906310;29;20509;-84
2022/12/22 06:03:52;;;;;;;85.90;34.63;;;8.60;99.90;;;;;;4896441;29;20525;-84
2022/12/22 06:06:18;;;;;;;103.90;38.13;;;8.60;99.90;;;;;;4896611;29;20060;-85
2022/12/22 06:08:43;;;;;;;81.70;33.25;;;8.60;99.90;;;;;;4903889;29;20040;-85
2022/12/22 06:11:09;;;;;;;80.63;32.28;;;8.60;99.90;;;;;;4893401;29;20135;-87
2022/12/22 06:13:35;;;;;;;53.97;28.52;;;8.60;99.90;;;;;;4905201;29;20159;-87
2022/12/22 06:16:00;;;;;;;63.28;28.67;;;8.60;99.90;;;;;;4909795;29;20521;-87
2022/12/22 06:18:27;;;;;;;67.60;29.10;;;8.60;99.90;;;;;;4905876;29;20099;-85
2022/12/22 06:20:53;;;;;;;66.95;29.33;;;8.90;99.90;;;;;;4908224;29;20055;-85
2022/12/22 06:23:20;;;;;;;60.83;27.77;;;8.50;99.90;;;;;;4904647;29;20044;-87
2022/12/22 06:25:59;;;;;;;72.22;29.83;;;8.50;99.90;;;;;;4901717;29;20040;-86
2022/12/22 06:28:28;;;;;;;60.83;29.25;;;8.50;99.90;;;;;;4922083;29;20047;-85
2022/12/22 06:30:54;;;;;;;61.25;29.42;;;8.50;99.90;;;;;;4893039;29;20036;-85
2022/12/22 06:33:20;;;;;;;63.53;28.17;;;8.50;99.90;;;;;;4894432;29;20036;-85
2022/12/22 06:35:46;;;;;;;64.72;28.92;;;8.50;99.90;;;;;;4906917;29;20501;-83
2022/12/22 06:38:12;;;;;;;55.72;28.50;;;8.40;99.90;;;;;;4893665;29;20048;-84
2022/12/22 06:40:37;;;;;;;66.00;29.08;;;8.40;99.90;;;;;;4904590;29;20464;-83
2022/12/22 06:43:09;;;;;;;67.72;28.70;;;8.40;99.90;;;;;;4894577;29;20047;-84
2022/12/22 06:45:40;;;;;;;62.42;27.73;;;8.40;99.90;;;;;;4906126;29;20104;-84
2022/12/22 06:48:07;;;;;;;65.90;26.02;;;8.30;99.90;;;;;;4906254;29;20048;-84
2022/12/22 06:50:33;;;;;;;65.85;27.10;;;8.10;99.90;;;;;;4906101;29;20075;-84
2022/12/22 06:52:59;;;;;;;54.75;24.23;;;8.00;99.90;;;;;;4903987;29;20074;-85
2022/12/22 06:55:25;;;;;;;46.60;23.02;;;8.00;99.90;;;;;;4906643;29;20449;-84
2022/12/22 06:57:51;;;;;;;50.10;24.23;;;7.90;99.90;;;;;;4906152;29;20055;-84
2022/12/22 07:00:17;;;;;;;77.00;28.25;;;7.80;99.90;;;;;;4888790;29;20044;-84
2022/12/22 07:02:42;;;;;;;45.92;25.13;;;7.80;99.90;;;;;;4908965;29;20396;-85
2022/12/22 07:05:08;;;;;;;63.50;25.98;;;7.80;99.90;;;;;;4910737;29;20060;-86
2022/12/22 07:07:33;;;;;;;51.83;25.10;;;7.80;99.90;;;;;;4909080;29;20096;-86
2022/12/22 07:10:06;;;;;;;76.82;28.77;;;7.80;99.90;;;;;;4889285;29;20047;-85
2022/12/22 07:12:35;;;;;;;71.82;28.42;;;7.70;99.90;;;;;;4895935;29;20041;-88
2022/12/22 07:15:16;;;;;;;51.58;25.15;;;7.70;99.90;;;;;;4920754;29;20044;-87
2022/12/22 07:17:42;;;;;;;51.00;25.67;;;7.70;99.90;;;;;;4913235;29;20048;-86
2022/12/22 07:20:08;;;;;;;59.63;25.02;;;7.80;99.90;;;;;;4891911;29;20636;-88
2022/12/22 07:22:49;;;;;;;93.10;27.73;;;7.70;99.90;;;;;;4893836;29;20140;-86
2022/12/22 07:25:53;;;;;;;74.05;26.60;;;7.70;99.90;;;;;;4920795;29;20048;-85
2022/12/22 07:28:35;;;;;;;48.45;23.63;;;7.30;99.90;;;;;;4857148;29;20049;-85
2022/12/22 07:31:19;;;;;;;50.42;24.48;;;7.60;99.90;;;;;;4893719;29;20070;-86
2022/12/22 07:33:48;;;;;;;62.03;25.02;;;7.80;99.90;;;;;;4924462;29;20400;-85
2022/12/22 07:36:18;;;;;;;52.53;24.13;;;7.60;99.90;;;;;;4905101;29;20047;-86
2022/12/22 07:38:46;;;;;;;55.08;25.25;;;7.70;99.90;;;;;;4891282;29;20044;-86
2022/12/22 07:44:00;;;;;;;56.63;24.05;;;7.70;99.90;;;;;;4900941;29;20059;-87
2022/12/22 07:46:29;;;;;;;62.97;23.70;;;7.70;99.90;;;;;;4880077;29;20047;-87
2022/12/22 07:51:41;;;;;;;51.75;22.65;;;7.70;99.90;;;;;;4899971;29;20122;-87
2022/12/22 07:54:08;;;;;;;61.83;23.00;;;7.60;99.90;;;;;;4899547;29;20145;-87
2022/12/22 07:56:34;;;;;;;78.97;26.15;;;7.60;99.90;;;;;;4914029;29;20820;-87
2022/12/22 07:59:00;;;;;;;66.47;24.70;;;7.60;99.90;;;;;;4899090;29;20055;-87
2022/12/22 08:01:27;;;;;;;59.58;23.70;;;7.60;99.90;;;;;;4899641;29;20103;-87
2022/12/22 08:03:52;;;;;;;42.70;20.48;;;7.60;99.90;;;;;;4897338;29;20510;-87
2022/12/22 08:06:18;;;;;;;47.55;21.63;;;7.60;99.90;;;;;;4898716;29;20048;-86
2022/12/22 08:08:44;;;;;;;41.13;19.70;;;7.70;99.90;;;;;;4898120;29;20048;-86
2022/12/22 08:11:10;;;;;;;51.63;22.27;;;7.50;99.90;;;;;;4901538;29;20470;-85
2022/12/22 08:13:48;;;;;;;49.13;21.55;;;7.50;99.90;;;;;;4894525;29;20182;-86
2022/12/22 08:16:19;;;;;;;69.38;24.48;;;7.50;99.90;;;;;;4882516;29;20296;-85
2022/12/22 08:18:50;;;;;;;40.65;19.55;;;7.50;99.90;;;;;;4879843;29;20522;-86
2022/12/22 08:21:16;;;;;;;39.22;18.80;;;7.50;99.90;;;;;;4893047;29;20578;-85
2022/12/22 08:23:44;;;;;;;37.35;18.58;;;7.70;99.90;;;;;;4898366;29;20053;-83
2022/12/22 08:26:22;;;;;;;42.88;18.52;;;7.40;99.90;;;;;;4881030;29;20037;-84
2022/12/22 08:29:09;;;;;;;36.72;17.83;;;7.40;99.90;;;;;;4901383;29;20038;-86
2022/12/22 08:31:54;;;;;;;35.13;17.88;;;7.40;99.90;;;;;;4886617;29;20036;-86
2022/12/22 08:42:40;;;;;;;;;;;;;;;;;;;;;
2022/12/22 08:46:30;;;;;;;;;;;;;;;;;;;;;
2022/12/22 08:49:44;;;;;;;56.92;18.00;;;7.10;99.90;;;;;;4894702;29;20055;-85
2022/12/22 08:52:26;;;;;;;;;;;;;;;;;;;;;
2022/12/22 08:56:16;;;;;;;67.10;18.35;;;7.30;99.90;;;;;;4897353;29;20052;-84
2022/12/22 08:58:51;;;;;;;36.58;14.82;;;7.30;99.90;;;;;;4901799;29;20515;-85
2022/12/22 09:01:35;;;;;;;29.50;14.20;;;7.30;99.90;;;;;;4904012;29;20062;-85
2022/12/22 09:04:30;;;;;;;25.90;13.15;;;7.30;99.90;;;;;;4906994;29;20139;-84
2022/12/22 09:10:43;;;;;;;31.58;14.40;;;6.90;99.90;;;;;;4887845;29;20040;-84
2022/12/22 09:13:09;;;;;;;39.10;14.57;;;7.30;99.90;;;;;;4888673;29;20151;-84
2022/12/22 09:15:36;;;;;;;65.68;15.18;;;8.20;99.90;;;;;;4889669;29;20398;-84
2022/12/22 09:18:02;;;;;;;72.97;15.82;;;7.30;99.90;;;;;;4902481;29;20044;-84
2022/12/22 09:20:28;;;;;;;50.10;15.82;;;7.30;99.90;;;;;;4905483;29;20048;-85
2022/12/22 09:22:54;;;;;;;57.53;15.05;;;7.30;99.90;;;;;;4882405;29;20048;-85
2022/12/22 09:25:20;;;;;;;49.22;13.95;;;7.50;99.90;;;;;;4883999;29;20119;-84
2022/12/22 09:27:55;;;;;;;42.70;13.55;;;7.30;99.90;;;;;;4893305;29;20040;-83
2022/12/22 09:30:20;;;;;;;50.75;14.07;;;7.60;99.90;;;;;;4882926;29;20040;-84
2022/12/22 09:32:46;;;;;;;36.47;13.57;;;7.70;99.90;;;;;;4889092;29;20046;-84
2022/12/22 09:35:12;;;;;;;30.85;12.05;;;7.50;99.90;;;;;;4902252;29;20238;-85
2022/12/22 09:37:38;;;;;;;25.73;12.23;;;7.30;99.90;;;;;;4894301;29;20155;-85
2022/12/22 09:40:07;;;;;;;42.60;14.50;;;7.30;99.90;;;;;;4894399;29;20063;-85
2022/12/22 09:42:34;;;;;;;30.42;13.38;;;7.20;99.90;;;;;;4882962;29;20044;-84
2022/12/22 09:45:10;;;;;;;25.63;12.52;;;7.30;99.90;;;;;;4897211;29;21409;-84
2022/12/22 09:47:53;;;;;;;25.15;11.63;;;6.60;99.90;;;;;;4880834;29;20048;-84
2022/12/22 09:50:24;;;;;;;26.05;11.93;;;7.10;99.90;;;;;;4889398;29;20066;-87
2022/12/22 09:52:53;;;;;;;23.60;11.50;;;7.10;99.90;;;;;;4886734;29;20044;-87
2022/12/22 09:55:22;;;;;;;21.05;11.27;;;7.20;99.90;;;;;;4884909;29;20047;-87
2022/12/22 09:57:48;;;;;;;33.92;12.68;;;7.10;99.90;;;;;;4902016;29;20048;-87
2022/12/22 10:00:17;;;;;;;26.35;11.98;;;7.80;99.90;;;;;;4901002;29;20062;-87
2022/12/22 10:03:21;;;;;;;28.60;12.43;;;7.50;99.90;;;;;;4905313;29;20411;-88
2022/12/22 10:06:07;;;;;;;23.95;11.90;;;7.20;99.90;;;;;;4876799;29;20384;-86
2022/12/22 10:08:37;;;;;;;25.88;11.43;;;7.20;99.90;;;;;;4889283;29;21608;-86
2022/12/22 10:11:03;;;;;;;27.50;11.85;;;7.20;99.90;;;;;;4906889;29;20044;-87
2022/12/22 10:13:29;;;;;;;27.10;12.25;;;7.30;99.90;;;;;;4897885;29;20928;-86
2022/12/22 10:15:55;;;;;;;26.42;11.50;;;7.30;99.90;;;;;;4892451;29;20043;-86
2022/12/22 10:19:09;;;;;;;29.08;11.77;;;7.30;99.90;;;;;;4898651;29;20059;-84
2022/12/22 10:21:35;;;;;;;25.20;11.23;;;7.30;99.90;;;;;;4889679;29;20066;-85
2022/12/22 10:24:14;;;;;;;24.83;10.82;;;7.30;99.90;;;;;;4911235;29;20040;-85
2022/12/22 10:26:42;;;;;;;32.25;12.02;;;7.30;99.90;;;;;;4885737;29;20048;-84
2022/12/22 10:29:31;;;;;;;22.98;10.55;;;7.30;99.90;;;;;;4905650;29;20158;-83
2022/12/22 10:32:03;;;;;;;24.67;10.82;;;7.20;99.90;;;;;;4900885;29;20051;-81
2022/12/22 10:34:35;;;;;;;22.20;10.35;;;7.30;99.90;;;;;;4903201;29;20071;-85
2022/12/22 10:37:04;;;;;;;23.95;10.68;;;7.20;99.90;;;;;;4907294;29;20110;-86
2022/12/22 10:40:32;;;;;;;27.90;10.82;;;7.40;99.90;;;;;;4899461;29;20058;-85
2022/12/22 10:43:54;;;;;;;22.83;11.57;;;7.40;99.90;;;;;;4883789;29;20048;-84
2022/12/22 10:47:31;;;;;;;24.90;10.55;;;7.50;99.90;;;;;;4897847;29;20039;-87
2022/12/22 10:53:58;;;;;;;19.15;9.63;;;7.60;99.90;;;;;;4914993;29;20031;-87
2022/12/22 13:02:33;;;;;;;17.88;6.65;;;9.10;99.90;;;;;;4959871;28;20537;-89
2022/12/22 13:05:35;;;;;;;13.95;6.88;;;9.10;99.90;;;;;;4963169;28;20058;-88
2022/12/22 13:08:22;;;;;;;;;;;9.20;99.90;;;;;;4964454;28;20074;-88
2022/12/22 13:10:57;;;;;;;15.10;7.35;;;9.20;99.90;;;;;;4943272;28;20602;-88
2022/12/22 13:13:23;;;;;;;18.33;7.07;;;9.50;99.90;;;;;;4960638;28;20038;-88
2022/12/22 13:16:21;;;;;;;18.77;7.15;;;9.10;99.90;;;;;;4964514;28;20113;-87
2022/12/22 13:18:48;;;;;;;13.65;7.43;;;9.30;99.90;;;;;;4959587;28;20039;-89
2022/12/22 13:21:21;;;;;;;16.95;7.40;;;9.30;99.90;;;;;;4958555;28;20059;-87
2022/12/22 13:24:12;;;;;;;18.38;7.28;;;9.30;99.90;;;;;;4964136;28;20071;-86
2022/12/22 13:26:40;;;;;;;14.68;7.10;;;9.20;99.90;;;;;;4953959;28;20206;-85
2022/12/22 13:29:12;;;;;;;18.08;7.13;;;9.30;99.90;;;;;;4963144;28;20058;-86
2022/12/22 13:31:49;;;;;;;16.65;7.13;;;9.30;99.90;;;;;;4945761;28;20046;-86
2022/12/22 13:34:35;;;;;;;17.55;6.40;;;9.30;99.90;;;;;;4931257;28;20161;-86
2022/12/22 13:37:34;;;;;;;13.85;6.22;;;9.30;99.90;;;;;;4927923;28;20074;-86
2022/12/22 13:40:14;;;;;;;16.83;4.75;;;9.30;99.90;;;;;;4937047;28;20047;-86
2022/12/22 13:42:42;;;;;;;12.75;3.75;;;9.30;99.90;;;;;;4943158;28;20044;-87
2022/12/22 13:45:17;;;;;;;8.93;3.38;;;9.40;99.90;;;;;;4954789;28;20046;-87
2022/12/22 13:47:44;;;;;;;14.00;3.40;;;9.30;99.90;;;;;;4956909;28;20043;-86
2022/12/22 13:50:23;;;;;;;9.68;3.75;;;9.80;99.90;;;;;;4940874;28;20303;-87
2022/12/22 13:52:51;;;;;;;8.00;2.65;;;9.20;99.90;;;;;;4939755;28;20043;-86
2022/12/22 13:55:22;;;;;;;8.80;3.08;;;9.30;99.90;;;;;;4940452;28;20043;-86
2022/12/22 13:57:48;;;;;;;10.68;2.83;;;9.30;99.90;;;;;;4951326;28;20073;-86
2022/12/22 14:32:55;;;;;;;7.18;2.50;;;9.20;99.90;;;;;;5920048;23;20301;-85
2022/12/22 15:08:41;;;;;;;7.00;2.95;;;8.90;99.90;;;;;;4914060;29;20150;-85
2022/12/22 15:11:14;;;;;;;6.47;2.45;;;8.80;99.90;;;;;;4896191;29;20542;-85
2022/12/22 15:13:41;;;;;;;11.80;2.85;;;8.90;99.90;;;;;;4900376;29;20127;-85
2022/12/22 15:16:14;;;;;;;6.10;2.35;;;8.80;99.90;;;;;;4912407;29;20043;-85
2022/12/22 15:22:21;;;;;;;8.77;2.10;;;8.70;99.90;;;;;;4904856;29;20055;-85
2022/12/22 15:24:47;;;;;;;10.52;3.15;;;8.70;99.90;;;;;;4912940;29;20047;-84
2022/12/22 15:27:23;;;;;;;11.05;3.85;;;8.70;99.90;;;;;;4897987;29;20036;-84
2022/12/22 15:29:49;;;;;;;12.30;3.17;;;8.80;99.90;;;;;;4896546;29;20044;-84
2022/12/22 15:32:14;;;;;;;10.10;3.53;;;8.70;99.90;;;;;;4911130;29;20043;-83
2022/12/22 15:34:40;;;;;;;9.15;3.65;;;8.60;99.90;;;;;;4910582;29;20775;-84
2022/12/22 15:37:05;;;;;;;8.55;3.42;;;8.60;99.90;;;;;;4925879;28;20048;-84
2022/12/22 15:39:31;;;;;;;6.07;3.25;;;8.50;99.90;;;;;;4900017;29;20071;-84
2022/12/22 15:42:16;;;;;;;14.07;4.07;;;8.50;99.90;;;;;;4911251;29;20118;-84
2022/12/22 15:44:42;;;;;;;11.00;4.45;;;8.60;99.90;;;;;;4906540;29;20051;-84
2022/12/22 15:47:10;;;;;;;12.85;5.53;;;8.50;99.90;;;;;;4894720;29;20048;-83
2022/12/22 15:49:39;;;;;;;10.27;4.85;;;8.50;99.90;;;;;;4899857;29;20098;-83
2022/12/22 15:52:07;;;;;;;9.68;4.93;;;8.50;99.90;;;;;;4894203;29;20399;-84
2022/12/22 15:54:35;;;;;;;14.30;5.32;;;8.50;99.90;;;;;;4911583;29;20126;-84
2022/12/22 15:57:13;;;;;;;10.82;5.13;;;8.50;99.90;;;;;;4910973;29;20066;-84
2022/12/22 15:59:45;;;;;;;8.07;5.15;;;8.40;99.90;;;;;;4924233;29;20146;-85
2022/12/22 16:09:49;;;;;;;14.73;6.15;;;8.50;99.90;;;;;;4887044;29;20054;-83
2022/12/22 16:12:17;;;;;;;16.17;7.47;;;8.40;99.90;;;;;;4923008;29;20047;-83
2022/12/22 16:14:58;;;;;;;12.43;7.68;;;8.80;99.90;;;;;;4925692;29;20068;-84
2022/12/22 16:17:31;;;;;;;13.95;7.95;;;8.40;99.90;;;;;;4926025;29;20082;-86
2022/12/22 16:19:58;;;;;;;14.82;7.25;;;8.40;99.90;;;;;;4914330;29;20511;-85
2022/12/22 16:22:35;;;;;;;12.00;8.18;;;8.70;99.90;;;;;;4928809;29;20040;-85
2022/12/22 16:25:02;;;;;;;12.85;8.85;;;8.30;99.90;;;;;;4930566;29;20126;-85
2022/12/22 16:27:29;;;;;;;12.80;9.68;;;8.30;99.90;;;;;;4918351;29;20038;-85
2022/12/22 16:30:19;;;;;;;14.00;9.27;;;8.30;99.90;;;;;;4931057;29;20043;-85
2022/12/22 16:32:59;;;;;;;16.55;10.85;;;8.20;99.90;;;;;;4916813;29;20055;-85
2022/12/22 16:35:28;;;;;;;12.75;9.73;;;8.10;99.90;;;;;;4919204;29;20134;-85
2022/12/22 16:37:56;;;;;;;14.75;10.32;;;8.10;99.90;;;;;;4918140;29;20051;-84
2022/12/22 16:40:23;;;;;;;13.27;10.98;;;8.10;99.90;;;;;;4917106;29;20040;-85
2022/12/22 16:43:03;;;;;;;15.63;11.73;;;8.00;99.90;;;;;;4936472;29;20048;-85
2022/12/22 16:45:32;;;;;;;16.85;12.55;;;8.00;99.90;;;;;;4935556;29;20616;-85
2022/12/22 16:48:03;;;;;;;16.85;11.40;;;8.00;99.90;;;;;;4946416;28;20106;-85
2022/12/22 16:50:32;;;;;;;16.55;12.25;;;7.90;99.90;;;;;;4939902;29;20039;-85
2022/12/22 16:52:59;;;;;;;18.20;12.27;;;7.90;99.90;;;;;;4932784;29;20138;-85
2022/12/22 16:55:25;;;;;;;15.68;12.73;;;7.80;99.90;;;;;;4929758;29;20050;-85
2022/12/22 16:57:51;;;;;;;17.23;13.98;;;7.80;99.90;;;;;;4911845;29;20043;-85
2022/12/22 17:00:22;;;;;;;21.23;14.98;;;7.80;99.90;;;;;;4915971;29;20106;-85
2022/12/22 17:02:54;;;;;;;21.15;15.88;;;7.70;99.90;;;;;;4929319;29;20039;-85
2022/12/22 17:05:26;;;;;;;24.38;16.58;;;7.70;99.90;;;;;;4933089;29;20032;-85
2022/12/22 17:07:52;;;;;;;24.60;16.98;;;7.60;99.90;;;;;;4929951;29;20039;-85
2022/12/22 17:10:20;;;;;;;23.13;17.42;;;7.60;99.90;;;;;;4946633;29;20048;-85
2022/12/22 17:12:46;;;;;;;22.80;16.10;;;7.70;99.90;;;;;;4920529;29;20081;-85
2022/12/22 17:15:17;;;;;;;22.98;16.92;;;8.30;99.90;;;;;;4916731;29;20066;-85
2022/12/22 17:17:42;;;;;;;25.17;17.52;;;7.50;99.90;;;;;;4928890;29;20036;-84
2022/12/22 17:20:13;;;;;;;29.00;18.05;;;7.50;99.90;;;;;;4930750;29;20028;-85
2022/12/22 17:22:40;;;;;;;24.15;17.27;;;7.50;99.90;;;;;;4917585;29;20051;-85
2022/12/22 17:25:13;;;;;;;25.67;17.88;;;8.50;99.90;;;;;;4937413;29;20032;-84
2022/12/22 17:27:39;;;;;;;26.02;18.00;;;7.50;99.90;;;;;;4937156;29;20094;-84
2022/12/22 17:30:14;;;;;;;24.48;17.98;;;7.70;99.90;;;;;;4940203;29;20126;-84
2022/12/22 17:32:39;;;;;;;25.73;17.10;;;7.50;99.90;;;;;;4938731;29;20446;-84
2022/12/22 17:35:05;;;;;;;28.60;18.05;;;7.80;99.90;;;;;;4940280;29;20067;-84
2022/12/22 17:37:31;;;;;;;27.95;19.38;;;7.50;99.90;;;;;;4937095;29;20059;-85
2022/12/22 17:39:59;;;;;;;27.00;18.48;;;7.50;99.90;;;;;;4945130;29;20056;-84
2022/12/22 17:42:25;;;;;;;28.92;18.48;;;7.50;99.90;;;;;;4944063;29;20058;-85
2022/12/22 17:44:51;;;;;;;29.40;19.75;;;7.50;99.90;;;;;;4944088;29;20071;-85
2022/12/22 17:47:21;;;;;;;30.73;19.83;;;7.40;99.90;;;;;;4942276;29;20040;-84
2022/12/22 17:49:47;;;;;;;27.98;19.10;;;7.40;99.90;;;;;;4945870;29;20051;-85
2022/12/22 17:52:18;;;;;;;28.27;19.45;;;7.50;99.90;;;;;;4942397;29;20431;-85
2022/12/22 17:54:46;;;;;;;27.60;19.55;;;7.40;99.90;;;;;;4943347;29;20103;-84
2022/12/22 17:57:19;;;;;;;33.92;20.45;;;7.50;99.90;;;;;;4941098;29;20039;-85
2022/12/22 17:59:46;;;;;;;28.83;19.13;;;7.80;99.90;;;;;;4924605;29;20449;-85
2022/12/22 18:02:19;;;;;;;29.65;19.77;;;7.40;99.90;;;;;;4941127;29;20103;-84
2022/12/22 18:04:46;;;;;;;33.25;20.17;;;7.40;99.90;;;;;;4939717;29;20070;-84
2022/12/22 18:07:14;;;;;;;33.90;20.05;;;8.00;99.90;;;;;;4932212;29;20040;-84
2022/12/22 18:09:41;;;;;;;31.33;21.00;;;7.40;99.90;;;;;;4935758;29;20388;-85
2022/12/22 18:12:20;;;;;;;33.70;22.17;;;7.40;99.90;;;;;;4922440;29;20121;-84
2022/12/22 18:14:46;;;;;;;44.95;22.77;;;7.50;99.90;;;;;;4918503;29;20879;-84
2022/12/22 18:17:23;;;;;;;32.10;22.45;;;7.30;99.90;;;;;;4908447;29;20553;-84
2022/12/22 18:19:49;;;;;;;37.83;23.55;;;7.40;99.90;;;;;;4931684;29;20052;-84
2022/12/22 18:22:20;;;;;;;30.25;21.92;;;7.40;99.90;;;;;;4945366;29;20063;-84
2022/12/22 18:24:48;;;;;;;35.85;22.85;;;7.40;99.90;;;;;;4960442;29;20032;-85
2022/12/22 18:27:14;;;;;;;34.20;22.38;;;7.40;99.90;;;;;;4944535;29;20035;-83
2022/12/22 18:29:40;;;;;;;36.53;22.50;;;8.00;99.90;;;;;;4962046;29;20035;-85
2022/12/22 18:32:09;;;;;;;31.50;21.52;;;7.40;99.90;;;;;;4938357;29;20048;-84
2022/12/22 18:34:38;;;;;;;37.03;22.38;;;7.40;99.90;;;;;;4942662;29;20055;-85
2022/12/22 18:37:13;;;;;;;38.40;23.15;;;7.40;99.90;;;;;;4940819;29;20048;-86
2022/12/22 18:39:44;;;;;;;36.45;24.73;;;7.40;99.90;;;;;;4936082;29;20122;-86
2022/12/22 18:42:20;;;;;;;33.90;24.23;;;7.40;99.90;;;;;;4938255;29;20040;-86
2022/12/22 18:44:46;;;;;;;36.10;24.23;;;7.40;99.90;;;;;;4941091;29;20054;-85
2022/12/22 18:47:13;;;;;;;40.22;23.73;;;7.40;99.90;;;;;;4942729;29;20063;-86
2022/12/22 18:49:39;;;;;;;36.22;23.70;;;7.50;99.90;;;;;;4940856;29;20043;-86
2022/12/22 18:52:21;;;;;;;34.22;22.98;;;7.50;99.90;;;;;;4932167;29;20091;-85
2022/12/22 18:54:50;;;;;;;33.10;23.48;;;7.50;99.90;;;;;;4926155;29;20091;-86
2022/12/22 18:57:18;;;;;;;33.17;23.70;;;7.40;99.90;;;;;;4923074;29;20124;-85
2022/12/22 18:59:44;;;;;;;36.88;24.05;;;7.50;99.90;;;;;;4925571;29;20074;-86
2022/12/22 19:02:23;;;;;;;35.25;23.75;;;7.50;99.90;;;;;;4911578;29;20051;-88
2022/12/22 19:04:49;;;;;;;33.53;25.00;;;7.40;99.90;;;;;;4948108;29;20036;-83
2022/12/22 19:07:21;;;;;;;35.85;24.17;;;7.50;99.90;;;;;;4921203;29;20426;-87
2022/12/22 19:17:56;;;;;;;33.90;24.40;;;7.20;99.90;;;;;;4870014;29;20060;-89
2022/12/22 19:29:00;;;;;;;33.85;25.52;;;7.50;99.90;;;;;;5134574;23;20403;-90
2022/12/22 19:51:08;;;;;;;42.08;27.83;;;7.50;99.90;;;;;;4928081;29;20052;-87
2022/12/22 19:53:34;;;;;;;42.60;28.13;;;7.50;99.90;;;;;;4909898;29;20055;-86
2022/12/22 19:56:18;;;;;;;44.15;28.75;;;7.50;99.90;;;;;;4891639;29;20690;-86
2022/12/22 19:59:08;;;;;;;41.65;28.80;;;7.60;99.90;;;;;;4907518;29;20086;-86
2022/12/22 20:01:59;;;;;;;40.40;27.38;;;7.60;99.90;;;;;;4907164;29;20051;-87
2022/12/22 20:07:43;;;;;;;48.00;29.48;;;7.50;99.90;;;;;;4933650;28;20055;-86
2022/12/22 20:10:15;;;;;;;51.80;31.98;;;7.40;99.90;;;;;;4921358;29;20491;-87
2022/12/22 20:12:45;;;;;;;44.95;30.15;;;7.40;99.90;;;;;;4929888;29;20185;-87
2022/12/22 20:15:17;;;;;;;60.13;31.35;;;7.40;99.90;;;;;;4939305;29;20065;-85
2022/12/22 20:17:47;;;;;;;52.58;31.65;;;7.40;99.90;;;;;;4920772;29;20048;-88
2022/12/22 20:20:19;;;;;;;52.75;29.73;;;7.40;99.90;;;;;;4946322;28;20051;-87
2022/12/22 20:22:49;;;;;;;67.18;32.53;;;7.40;99.90;;;;;;4935370;29;20043;-89
2022/12/22 20:25:16;;;;;;;77.05;33.63;;;7.40;99.90;;;;;;4936307;28;20031;-88
2022/12/22 20:27:42;;;;;;;65.63;32.92;;;7.30;99.90;;;;;;4934265;28;20048;-88
2022/12/22 20:30:15;;;;;;;72.80;35.75;;;7.30;99.90;;;;;;4925582;29;20047;-88
2022/12/22 20:32:41;;;;;;;98.65;37.03;;;7.30;99.90;;;;;;4924164;29;20091;-86
2022/12/22 20:35:06;;;;;;;71.70;34.90;;;7.30;99.90;;;;;;4931803;28;20094;-88
2022/12/22 20:37:32;;;;;;;85.05;36.38;;;7.70;99.90;;;;;;4937820;28;20094;-88
2022/12/22 20:39:58;;;;;;;84.40;37.55;;;7.30;99.90;;;;;;4941598;29;20046;-88
2022/12/22 20:42:26;;;;;;;117.95;42.33;;;7.30;99.90;;;;;;4939574;28;20042;-88
2022/12/22 20:44:52;;;;;;;93.50;38.53;;;7.20;99.90;;;;;;4931832;29;20084;-86
2022/12/22 20:47:18;;;;;;;94.35;40.83;;;7.30;99.90;;;;;;4918281;29;20048;-89
2022/12/22 20:49:44;;;;;;;89.95;38.35;;;7.20;99.90;;;;;;4924996;28;20036;-86
2022/12/22 20:52:15;;;;;;;118.78;43.60;;;7.20;99.90;;;;;;4925146;29;20055;-87
2022/12/22 20:54:41;;;;;;;122.72;45.20;;;7.30;99.90;;;;;;4923542;29;20051;-86
2022/12/22 20:57:15;;;;;;;104.88;42.22;;;7.30;99.90;;;;;;4924960;28;20482;-87
2022/12/22 20:59:45;;;;;;;111.50;42.33;;;7.40;99.90;;;;;;4929287;29;20043;-87
2022/12/22 21:02:29;;;;;;;120.40;45.13;;;7.30;99.90;;;;;;4940511;28;20043;-86
2022/12/22 21:04:55;;;;;;;125.20;46.40;;;7.30;99.90;;;;;;4940573;28;20118;-86